Etusivu
METAR-TAF:

METAR-TAF

Lentoasemat :

Adrar, Algeria

Leveyspiiri: 27-53N, Pituuspiiri: 000-17W, korkeus merenpinnasta: 263 m

Tämänhetkinen sää

Tämä raportti tehtiin 1 tunti ja 9 minuuttia sitten, kello 11.00 UTC
Tuuli 13 kn lounaasta
Lämpötila 44°C
Ilmanpaine 1009 hPa
Näkyvyys: 7000 m

METAR: DAUA 191100Z 22013KT 7000 NSC 44/// Q1009

Aika: 13:09 (12:09 UTC)

Sääennuste

Tämä raportti tehtiin 1 tunti ja 9 minuuttia sitten, kello 11.00 UTC
Ennuste voimassa 19. päivästä klo 12 UTC - 20. päivään klo 12 UTC
Tuuli 14 kn etelästä
Näkyvyys: 6000 m
Todennäköisyys 30%
19. päivästä klo 12 UTC - 19. päivään klo 18 UTC
Näkyvyys: 2000 m
matalaa hiekkatuisku
Tulossa
19. päivästä klo 20 UTC - 19. päivään klo 23 UTC
Tuuli 2 kn eri suunnista
Tulossa
20. päivästä klo 09 UTC - 20. päivään klo 11 UTC
Tuuli 10 kn luoteesta

TAF: DAUA 191100Z 1912/2012 18014KT 6000 NSC PROB30 1912/1918 2000 DRSA BECMG 1920/1923 VRB02KT BECMG 2009/2011 32010KT

Säähavainnot ja -ennusteet yli 4000 lentoasemalta (METAR- ja TAF-raportit).

Käytössä olevat sääasemat on merkitty karttaan keltaisilla ja punaisilla pisteillä.

Aseta hiiri pisteen päälle nähdäksesi sääaseman nimen.

Klikkaa sitten nähdäksesi säähavainnot ja -ennusteet.

Kartan vaihtaminen: klikkaa mustalla rastilla varustettuja vihreitä pisteitä, niin voit zoomata sisään; viivalla varustettua vihreää pistettä, niin voit zoomata ulos tai vihreitä nuolia, niin pääset viereisille kartoille.


METAR-TAF: